Time;durP1;ratioP1;P1;durP2;ratioP2;P2;SDS_P1;SDS_P2;PMS_P1;PMS_P2;Temp;Humidity;BMP_temperature;BMP_pressure;BME280_temperature;BME280_humidity;BME280_pressure;Samples;Min_cycle;Max_cycle;Signal;HPM_P1;HPM_P2
2022/03/18 00:00:24;;;;;;;;;;;;;;;5.71;40.12;102534.55;1757429;80;20481;-80
2022/03/18 00:02:52;;;;;;;;;;;;;;;5.73;40.00;102536.66;1758661;80;20112;-79
2022/03/18 00:05:19;;;;;;;;;;;;;;;5.76;39.97;102533.04;1724496;80;20106;-85
2022/03/18 00:07:45;;;;;;;;;;;;;;;5.75;40.02;102532.20;1753328;80;20190;-82
2022/03/18 00:10:11;;;;;;;;;;;;;;;5.77;40.01;102535.22;1752427;80;20240;-84
2022/03/18 00:12:37;;;;;;;;;;;;;;;5.64;40.35;102539.67;1755184;80;20170;-84
2022/03/18 00:15:10;;;;;;;;;;;;;;;5.64;40.41;102546.23;1747605;80;20595;-84
2022/03/18 00:17:36;;;;;;;;;;;;;;;5.69;40.37;102553.43;1749563;80;20349;-84
2022/03/18 00:20:04;;;;;;;;;;;;;;;5.72;40.21;102553.77;1753724;80;20614;-82
2022/03/18 00:22:29;;;;;;;;;;;;;;;5.73;40.32;102552.83;1750104;80;20508;-87
2022/03/18 00:24:55;;;;;;;;;;;;;;;5.60;40.56;102556.44;1722615;82;20554;-86
2022/03/18 00:27:20;;;;;;;;;;;;;;;5.52;40.80;102558.06;1704840;83;21151;-81
2022/03/18 00:29:46;;;;;;;;;;;;;;;5.48;40.99;102555.64;1702998;83;20653;-86
2022/03/18 00:32:11;;;;;;;;;;;;;;;5.43;41.09;102560.23;1707328;83;20140;-82
2022/03/18 00:34:37;;;;;;;;;;;;;;;5.35;41.34;102564.00;1704661;83;20440;-85
2022/03/18 00:37:05;;;;;;;;;;;;;;;5.43;41.23;102561.54;1706353;82;20148;-84
2022/03/18 00:39:31;;;;;;;;;;;;;;;5.44;41.13;102560.59;1707406;83;22125;-86
2022/03/18 00:41:56;;;;;;;;;;;;;;;5.36;41.31;102560.48;1702782;83;20471;-87
2022/03/18 00:44:25;;;;;;;;;;;;;;;5.40;41.29;102562.03;1702854;83;20183;-81
2022/03/18 00:46:49;;;;;;;;;;;;;;;5.43;41.13;102562.37;1706935;83;20197;-86
2022/03/18 00:52:03;;;;;;;;;;;;;;;5.39;41.10;102565.59;1704461;83;20152;-84
2022/03/18 00:54:28;;;;;;;;;;;;;;;5.49;40.97;102559.97;1702921;83;20132;-80
2022/03/18 00:56:54;;;;;;;;;;;;;;;5.28;41.34;102564.31;1706848;83;20111;-85
2022/03/18 00:59:19;;;;;;;;;;;;;;;5.35;41.34;102562.69;1707434;83;20438;-82
2022/03/18 01:01:47;;;;;;;;;;;;;;;5.10;41.87;102565.92;1704475;83;20342;-79
2022/03/18 01:04:13;;;;;;;;;;;;;;;5.04;41.98;102559.98;1707146;83;21074;-86
2022/03/18 01:06:38;;;;;;;;;;;;;;;5.15;41.86;102561.34;1703748;83;21011;-85
2022/03/18 01:09:04;;;;;;;;;;;;;;;5.23;41.70;102561.03;1705444;83;20138;-85
2022/03/18 01:11:32;;;;;;;;;;;;;;;5.16;41.85;102566.98;1706970;83;20152;-84
2022/03/18 01:13:58;;;;;;;;;;;;;;;5.07;42.06;102566.04;1704990;83;20200;-84
2022/03/18 01:16:24;;;;;;;;;;;;;;;5.03;42.02;102564.85;1704805;83;21321;-84
2022/03/18 01:18:49;;;;;;;;;;;;;;;4.95;42.31;102562.13;1704263;82;20486;-85
2022/03/18 01:21:15;;;;;;;;;;;;;;;4.95;42.20;102559.04;1704941;83;20144;-81
2022/03/18 01:23:40;;;;;;;;;;;;;;;4.82;42.51;102566.99;1703253;82;20473;-85
2022/03/18 01:26:06;;;;;;;;;;;;;;;4.77;42.61;102562.37;1707879;83;20420;-84
2022/03/18 01:28:31;;;;;;;;;;;;;;;4.74;42.76;102563.80;1706047;83;21139;-80
2022/03/18 01:30:57;;;;;;;;;;;;;;;4.64;43.03;102568.53;1705018;83;20141;-82
2022/03/18 01:33:23;;;;;;;;;;;;;;;4.67;43.02;102571.88;1703457;83;20144;-84
2022/03/18 01:35:48;;;;;;;;;;;;;;;4.68;43.04;102564.90;1707626;82;20125;-85
2022/03/18 01:38:14;;;;;;;;;;;;;;;4.68;43.04;102564.44;1706372;83;20250;-85
2022/03/18 01:40:40;;;;;;;;;;;;;;;4.70;43.05;102576.62;1710393;83;21666;-83
2022/03/18 01:43:11;;;;;;;;;;;;;;;4.70;43.16;102573.53;1708156;83;20200;-85
2022/03/18 01:45:37;;;;;;;;;;;;;;;4.72;43.32;102572.17;1705644;83;20216;-82
2022/03/18 01:48:04;;;;;;;;;;;;;;;4.68;43.42;102575.37;1707146;83;21340;-84
2022/03/18 01:50:30;;;;;;;;;;;;;;;4.60;43.80;102580.02;1706925;83;20173;-85
2022/03/18 01:52:56;;;;;;;;;;;;;;;4.54;44.03;102578.50;1706271;83;21138;-81
2022/03/18 01:55:21;;;;;;;;;;;;;;;4.50;44.33;102571.66;1708047;83;20203;-77
2022/03/18 01:57:47;;;;;;;;;;;;;;;4.62;43.94;102576.44;1707275;83;21185;-85
2022/03/18 02:00:13;;;;;;;;;;;;;;;4.49;44.19;102581.75;1706995;83;20491;-85
2022/03/18 02:02:39;;;;;;;;;;;;;;;4.52;44.14;102584.69;1706635;83;20492;-82
2022/03/18 02:05:07;;;;;;;;;;;;;;;4.52;44.13;102588.61;1707469;83;21081;-84
2022/03/18 02:07:32;;;;;;;;;;;;;;;4.49;44.06;102589.14;1703425;83;20636;-83
2022/03/18 02:09:58;;;;;;;;;;;;;;;4.52;44.15;102589.45;1704206;83;20163;-87
2022/03/18 02:12:24;;;;;;;;;;;;;;;4.55;44.13;102585.42;1705897;82;20183;-86
2022/03/18 02:14:49;;;;;;;;;;;;;;;4.56;44.10;102587.60;1705973;83;20149;-81
2022/03/18 02:17:19;;;;;;;;;;;;;;;4.54;44.23;102587.66;1704280;83;20968;-85
2022/03/18 02:19:45;;;;;;;;;;;;;;;4.62;43.92;102586.91;1707390;83;20140;-85
2022/03/18 02:22:14;;;;;;;;;;;;;;;4.68;43.76;102586.68;1709594;83;20142;-85
2022/03/18 02:24:40;;;;;;;;;;;;;;;4.64;43.84;102585.08;1707133;83;20210;-84
2022/03/18 02:27:06;;;;;;;;;;;;;;;4.64;43.83;102578.53;1709219;83;20157;-84
2022/03/18 02:29:32;;;;;;;;;;;;;;;4.64;43.83;102585.08;1706674;83;21117;-85
2022/03/18 02:31:57;;;;;;;;;;;;;;;4.57;44.02;102578.82;1696250;83;20120;-86
2022/03/18 02:34:23;;;;;;;;;;;;;;;4.57;43.96;102578.39;1705938;83;20721;-83
2022/03/18 02:36:49;;;;;;;;;;;;;;;4.56;44.09;102580.59;1705753;83;20132;-83
2022/03/18 02:39:15;;;;;;;;;;;;;;;4.56;44.20;102584.98;1707607;83;20178;-84
2022/03/18 02:41:41;;;;;;;;;;;;;;;4.47;44.53;102590.97;1707719;83;21187;-81
2022/03/18 02:44:07;;;;;;;;;;;;;;;4.44;44.70;102592.81;1707517;83;20184;-83
2022/03/18 02:46:32;;;;;;;;;;;;;;;4.34;44.85;102601.46;1702801;83;20191;-85
2022/03/18 02:49:02;;;;;;;;;;;;;;;4.38;44.81;102602.20;1703069;83;20129;-78
2022/03/18 02:51:28;;;;;;;;;;;;;;;4.29;45.25;102606.86;1702265;83;20185;-85
2022/03/18 02:53:54;;;;;;;;;;;;;;;4.34;44.94;102605.85;1707478;83;21899;-83
2022/03/18 02:56:20;;;;;;;;;;;;;;;4.35;44.90;102608.41;1708193;83;20116;-80
2022/03/18 02:58:46;;;;;;;;;;;;;;;4.27;45.38;102611.30;1707120;83;20176;-84
2022/03/18 03:01:11;;;;;;;;;;;;;;;4.29;45.36;102616.02;1704619;82;20615;-83
2022/03/18 03:03:37;;;;;;;;;;;;;;;4.21;45.65;102622.41;1703818;83;20173;-83
2022/03/18 03:08:47;;;;;;;;;;;;;;;4.20;45.72;102618.95;1702901;83;20246;-85
2022/03/18 03:11:12;;;;;;;;;;;;;;;4.23;45.62;102616.23;1704693;83;20450;-82
2022/03/18 03:13:38;;;;;;;;;;;;;;;4.16;45.78;102617.34;1702372;83;20598;-84
2022/03/18 03:16:04;;;;;;;;;;;;;;;4.09;45.96;102618.48;1705323;83;20152;-85
2022/03/18 03:18:29;;;;;;;;;;;;;;;4.01;46.25;102613.95;1707728;83;21166;-84
2022/03/18 03:20:56;;;;;;;;;;;;;;;4.01;46.23;102616.56;1707082;82;20467;-84
2022/03/18 03:23:23;;;;;;;;;;;;;;;3.93;46.42;102621.62;1706078;83;20968;-84
2022/03/18 03:25:49;;;;;;;;;;;;;;;3.93;46.32;102620.73;1703409;83;20946;-85
2022/03/18 03:28:17;;;;;;;;;;;;;;;3.95;46.11;102621.10;1706742;83;20147;-81
2022/03/18 03:30:42;;;;;;;;;;;;;;;3.76;46.77;102622.18;1699453;83;21196;-84
2022/03/18 03:33:08;;;;;;;;;;;;;;;3.84;46.76;102631.07;1697935;83;20164;-82
2022/03/18 03:35:34;;;;;;;;;;;;;;;3.71;47.10;102636.29;1696917;83;20210;-78
2022/03/18 03:37:59;;;;;;;;;;;;;;;3.57;47.55;102638.92;1698798;83;20172;-82
2022/03/18 03:40:25;;;;;;;;;;;;;;;3.64;47.40;102641.33;1700858;83;20168;-83
2022/03/18 03:42:50;;;;;;;;;;;;;;;3.55;47.76;102639.40;1718655;83;21149;-85
2022/03/18 03:45:16;;;;;;;;;;;;;;;3.61;47.61;102640.13;1711293;83;20167;-82
2022/03/18 03:47:42;;;;;;;;;;;;;;;3.61;47.74;102646.20;1715151;83;20156;-81
2022/03/18 03:50:11;;;;;;;;;;;;;;;3.61;47.80;102645.35;1714483;83;20177;-85
2022/03/18 03:52:40;;;;;;;;;;;;;;;3.69;47.42;102640.72;1712882;83;21039;-85
2022/03/18 03:55:07;;;;;;;;;;;;;;;3.72;47.42;102645.84;1710071;83;21259;-82
2022/03/18 03:57:33;;;;;;;;;;;;;;;3.71;47.43;102648.05;1712898;83;20188;-86
2022/03/18 03:59:58;;;;;;;;;;;;;;;3.67;47.48;102652.99;1715328;83;21153;-82
2022/03/18 04:02:24;;;;;;;;;;;;;;;3.75;47.17;102654.44;1711711;83;20580;-80
2022/03/18 04:04:50;;;;;;;;;;;;;;;3.75;47.18;102660.97;1718121;83;20149;-85
2022/03/18 04:07:15;;;;;;;;;;;;;;;3.72;47.22;102658.45;1691881;83;21379;-80
2022/03/18 04:09:41;;;;;;;;;;;;;;;3.78;46.95;102658.72;1715414;83;20766;-86
2022/03/18 04:12:07;;;;;;;;;;;;;;;3.75;47.00;102666.66;1715159;83;20276;-85
2022/03/18 04:14:33;;;;;;;;;;;;;;;3.71;47.15;102665.03;1712111;83;20181;-86
2022/03/18 04:16:58;;;;;;;;;;;;;;;3.53;47.65;102662.11;1712003;83;20173;-84
2022/03/18 04:19:25;;;;;;;;;;;;;;;3.63;47.38;102664.44;1714334;83;20639;-81
2022/03/18 04:21:51;;;;;;;;;;;;;;;3.56;47.57;102669.02;1713944;83;20138;-78
2022/03/18 04:24:17;;;;;;;;;;;;;;;3.64;47.21;102674.00;1717535;83;20168;-83
2022/03/18 04:26:42;;;;;;;;;;;;;;;3.55;47.63;102679.05;1716700;83;20164;-81
2022/03/18 04:29:12;;;;;;;;;;;;;;;3.55;47.49;102680.35;1714302;83;20133;-82
2022/03/18 04:31:40;;;;;;;;;;;;;;;3.56;47.56;102682.08;1699464;83;20143;-86
2022/03/18 04:34:06;;;;;;;;;;;;;;;3.48;47.76;102690.15;1694776;83;20153;-86
2022/03/18 04:36:31;;;;;;;;;;;;;;;3.55;47.45;102690.80;1694109;83;20199;-85
2022/03/18 04:38:57;;;;;;;;;;;;;;;3.48;47.72;102697.98;1694837;83;20709;-83
2022/03/18 04:41:23;;;;;;;;;;;;;;;3.51;47.58;102700.50;1692136;83;20550;-86
2022/03/18 04:43:49;;;;;;;;;;;;;;;3.46;47.74;102703.69;1690678;83;21031;-85
2022/03/18 04:46:14;;;;;;;;;;;;;;;3.43;47.86;102704.23;1690058;83;20194;-86
2022/03/18 04:48:40;;;;;;;;;;;;;;;3.02;48.89;102713.70;1690296;83;20171;-82
2022/03/18 04:51:06;;;;;;;;;;;;;;;2.81;49.51;102713.41;1692992;83;20720;-82
2022/03/18 04:53:31;;;;;;;;;;;;;;;2.70;49.83;102715.44;1689728;83;20792;-81
2022/03/18 04:55:57;;;;;;;;;;;;;;;2.56;50.36;102721.48;1695158;83;21939;-84
2022/03/18 04:58:22;;;;;;;;;;;;;;;2.62;50.06;102716.95;1691503;83;20144;-83
2022/03/18 05:00:48;;;;;;;;;;;;;;;2.71;49.89;102720.23;1685195;83;20148;-84
2022/03/18 05:03:13;;;;;;;;;;;;;;;2.97;49.26;102716.91;1674812;83;20168;-86
2022/03/18 05:05:39;;;;;;;;;;;;;;;3.04;49.06;102722.34;1685548;83;21182;-84
2022/03/18 05:08:05;;;;;;;;;;;;;;;3.03;49.09;102724.53;1704749;83;21856;-82
2022/03/18 05:10:30;;;;;;;;;;;;;;;3.12;48.83;102726.88;1691265;83;20127;-82
2022/03/18 05:12:56;;;;;;;;;;;;;;;3.15;48.92;102732.02;1695893;83;20194;-83
2022/03/18 05:15:23;;;;;;;;;;;;;;;2.93;49.51;102734.38;1694443;83;20179;-81
2022/03/18 05:17:51;;;;;;;;;;;;;;;2.88;49.90;102737.12;1694927;83;20174;-84
2022/03/18 05:20:16;;;;;;;;;;;;;;;2.47;50.81;102745.61;1702589;83;21219;-81
2022/03/18 05:22:42;;;;;;;;;;;;;;;2.70;57.04;102746.75;1686728;83;20306;-79
2022/03/18 05:25:08;;;;;;;;;;;;;;;3.02;56.24;102755.47;1693021;83;20231;-81
2022/03/18 05:27:35;;;;;;;;;;;;;;;3.04;52.10;102749.75;1690577;83;20213;-84
2022/03/18 05:30:01;;;;;;;;;;;;;;;2.96;51.34;102754.34;1679342;83;20175;-83
2022/03/18 05:32:27;;;;;;;;;;;;;;;2.95;50.78;102753.48;1713733;83;21346;-84
2022/03/18 05:34:52;;;;;;;;;;;;;;;3.14;50.41;102756.43;1712415;83;20128;-83
2022/03/18 05:37:18;;;;;;;;;;;;;;;3.21;50.01;102757.11;1713656;83;20151;-82
2022/03/18 05:39:43;;;;;;;;;;;;;;;3.22;49.82;102762.74;1714050;82;20546;-77
2022/03/18 05:42:09;;;;;;;;;;;;;;;3.24;49.55;102765.70;1711083;83;20210;-81
2022/03/18 05:44:34;;;;;;;;;;;;;;;3.28;49.42;102769.09;1713621;83;21144;-80
2022/03/18 05:47:00;;;;;;;;;;;;;;;3.38;49.22;102773.59;1715063;83;20363;-81
2022/03/18 05:49:26;;;;;;;;;;;;;;;3.46;49.03;102775.52;1714747;83;20150;-80
2022/03/18 05:51:51;;;;;;;;;;;;;;;3.49;48.94;102774.12;1717061;83;20337;-82
2022/03/18 05:54:17;;;;;;;;;;;;;;;3.49;48.98;102772.82;1716614;83;20116;-82
2022/03/18 05:56:55;;;;;;;;;;;;;;;3.63;48.71;102776.79;1716640;83;21222;-84
2022/03/18 05:59:25;;;;;;;;;;;;;;;3.69;48.66;102771.38;1712897;83;20485;-82
2022/03/18 06:01:53;;;;;;;;;;;;;;;3.64;48.87;102773.28;1713029;83;20182;-80
2022/03/18 06:04:19;;;;;;;;;;;;;;;3.70;48.82;102780.94;1715933;83;20192;-80
2022/03/18 06:06:44;;;;;;;;;;;;;;;3.78;48.39;102784.17;1714640;83;20148;-81
2022/03/18 06:11:55;;;;;;;;;;;;;;;3.83;48.27;102790.56;1711962;81;20113;-83
2022/03/18 06:14:23;;;;;;;;;;;;;;;3.73;48.32;102788.69;1714977;83;21093;-84
2022/03/18 06:16:50;;;;;;;;;;;;;;;3.83;48.20;102794.48;1714600;83;20610;-80
2022/03/18 06:19:17;;;;;;;;;;;;;;;3.69;48.48;102797.52;1717197;83;20267;-79
2022/03/18 06:21:43;;;;;;;;;;;;;;;3.73;48.44;102800.45;1713460;83;21118;-81
2022/03/18 06:24:09;;;;;;;;;;;;;;;3.80;48.42;102801.95;1714839;83;20113;-80
2022/03/18 06:26:35;;;;;;;;;;;;;;;3.83;48.41;102804.94;1714548;83;20174;-81
2022/03/18 06:29:03;;;;;;;;;;;;;;;3.95;48.24;102806.72;1715834;83;20253;-81
2022/03/18 06:31:28;;;;;;;;;;;;;;;4.00;48.29;102797.89;1712049;83;20171;-83
2022/03/18 06:33:54;;;;;;;;;;;;;;;4.10;48.09;102803.20;1705992;83;22011;-82
2022/03/18 06:36:19;;;;;;;;;;;;;;;4.12;48.01;102803.58;1704447;83;20128;-81
2022/03/18 06:38:45;;;;;;;;;;;;;;;4.14;48.02;102809.60;1709394;83;20193;-78
2022/03/18 06:41:11;;;;;;;;;;;;;;;4.22;47.97;102805.44;1706852;83;20213;-82
2022/03/18 06:43:37;;;;;;;;;;;;;;;4.23;48.03;102811.55;1708895;83;21479;-83
2022/03/18 06:46:02;;;;;;;;;;;;;;;4.30;47.94;102816.53;1707798;82;20574;-80
2022/03/18 06:48:28;;;;;;;;;;;;;;;4.27;47.94;102816.63;1703430;83;20529;-81
2022/03/18 06:50:54;;;;;;;;;;;;;;;4.37;47.94;102816.34;1703762;83;20231;-82
2022/03/18 06:53:20;;;;;;;;;;;;;;;4.42;47.84;102819.64;1710772;83;20132;-80
2022/03/18 06:55:45;;;;;;;;;;;;;;;4.50;47.59;102817.63;1705394;83;20164;-82
2022/03/18 06:58:11;;;;;;;;;;;;;;;4.57;47.45;102813.91;1705128;83;21178;-79
2022/03/18 07:00:38;;;;;;;;;;;;;;;4.61;47.67;102818.11;1705218;83;20838;-79
2022/03/18 07:03:04;;;;;;;;;;;;;;;4.73;48.62;102821.25;1703097;82;20196;-82
2022/03/18 07:05:31;;;;;;;;;;;;;;;4.77;47.54;102824.14;1705531;82;20305;-82
2022/03/18 07:07:57;;;;;;;;;;;;;;;4.83;47.23;102825.23;1705385;83;20189;-81
2022/03/18 07:10:23;;;;;;;;;;;;;;;4.87;47.08;102832.09;1711076;83;21161;-81
2022/03/18 07:12:49;;;;;;;;;;;;;;;4.97;46.91;102833.50;1707887;82;20211;-82
2022/03/18 07:15:14;;;;;;;;;;;;;;;5.04;46.49;102832.35;1708449;83;20201;-84
2022/03/18 07:18:01;;;;;;;;;;;;;;;5.14;46.28;102829.41;1703966;82;20432;-83
2022/03/18 07:20:28;;;;;;;;;;;;;;;5.26;45.87;102835.98;1705969;82;20221;-82
2022/03/18 07:23:11;;;;;;;;;;;;;;;5.30;45.52;102839.75;1705762;83;21072;-84
2022/03/18 07:25:39;;;;;;;;;;;;;;;5.46;45.28;102833.48;1704498;83;20680;-82
2022/03/18 07:28:07;;;;;;;;;;;;;;;5.55;44.71;102837.08;1705195;83;20186;-80
2022/03/18 07:30:33;;;;;;;;;;;;;;;5.62;44.76;102829.83;1710235;83;20148;-83
2022/03/18 07:32:59;;;;;;;;;;;;;;;5.80;44.09;102834.84;1707076;83;20206;-83
2022/03/18 07:35:25;;;;;;;;;;;;;;;5.80;43.26;102843.19;1699826;83;21110;-80
2022/03/18 07:37:50;;;;;;;;;;;;;;;5.95;43.18;102836.03;1704888;83;20235;-78
2022/03/18 07:40:17;;;;;;;;;;;;;;;5.95;42.87;102838.66;1703774;83;20232;-81
2022/03/18 07:42:44;;;;;;;;;;;;;;;5.99;42.46;102838.95;1703180;83;20195;-78
2022/03/18 07:45:13;;;;;;;;;;;;;;;6.01;41.82;102841.08;1706287;83;20185;-83
2022/03/18 07:47:39;;;;;;;;;;;;;;;6.03;41.37;102844.48;1681341;83;21078;-82
2022/03/18 07:50:06;;;;;;;;;;;;;;;6.16;41.31;102847.94;1704081;82;20178;-80
2022/03/18 07:52:31;;;;;;;;;;;;;;;6.19;41.42;102846.50;1703400;83;20193;-84
2022/03/18 07:54:57;;;;;;;;;;;;;;;6.30;41.35;102849.55;1705736;83;20507;-81
2022/03/18 07:57:22;;;;;;;;;;;;;;;6.31;40.89;102848.64;1708298;83;20141;-85
2022/03/18 07:59:48;;;;;;;;;;;;;;;6.30;41.02;102848.23;1705476;83;21142;-81
2022/03/18 08:02:13;;;;;;;;;;;;;;;6.41;40.48;102849.11;1698192;82;20244;-83
2022/03/18 08:04:39;;;;;;;;;;;;;;;6.45;40.06;102852.87;1706071;83;20144;-81
2022/03/18 08:07:05;;;;;;;;;;;;;;;6.50;39.48;102855.77;1705212;83;20351;-82
2022/03/18 08:09:31;;;;;;;;;;;;;;;6.51;39.20;102850.89;1703968;83;20178;-79
2022/03/18 08:11:57;;;;;;;;;;;;;;;6.47;39.15;102855.43;1702020;83;21821;-82
2022/03/18 08:14:23;;;;;;;;;;;;;;;6.40;39.08;102864.02;1701637;83;20220;-83
2022/03/18 08:16:49;;;;;;;;;;;;;;;6.52;39.36;102864.43;1704369;83;20113;-83
2022/03/18 08:19:14;;;;;;;;;;;;;;;6.43;38.76;102865.21;1704592;83;20140;-83
2022/03/18 08:21:40;;;;;;;;;;;;;;;6.50;38.08;102866.27;1704907;83;20186;-84
2022/03/18 08:24:06;;;;;;;;;;;;;;;6.48;37.84;102868.96;1704321;83;21429;-82
2022/03/18 08:26:36;;;;;;;;;;;;;;;6.36;37.96;102861.58;1699398;83;20168;-81
2022/03/18 08:28:59;;;;;;;;;;;;;;;6.44;37.55;102866.90;1703137;83;20265;-82
2022/03/18 08:31:26;;;;;;;;;;;;;;;6.61;37.49;102869.30;1704736;83;20454;-81
2022/03/18 08:33:51;;;;;;;;;;;;;;;6.62;36.44;102869.71;1699441;83;20535;-79
2022/03/18 08:36:17;;;;;;;;;;;;;;;6.64;36.51;102859.99;1704441;82;21173;-82
2022/03/18 08:38:42;;;;;;;;;;;;;;;6.75;36.89;102873.98;1711074;82;20202;-82
2022/03/18 08:41:08;;;;;;;;;;;;;;;6.85;36.56;102874.45;1708040;83;20163;-83
2022/03/18 08:43:34;;;;;;;;;;;;;;;7.01;36.84;102869.80;1702332;83;20147;-82
2022/03/18 08:46:00;;;;;;;;;;;;;;;6.93;36.61;102873.66;1704920;83;20128;-83
2022/03/18 08:48:27;;;;;;;;;;;;;;;6.99;36.16;102887.41;1702543;83;21209;-79
2022/03/18 08:50:52;;;;;;;;;;;;;;;6.95;35.92;102874.00;1700680;83;20185;-80
2022/03/18 08:53:18;;;;;;;;;;;;;;;7.03;35.95;102874.98;1701278;83;21080;-84
2022/03/18 08:55:43;;;;;;;;;;;;;;;7.12;35.64;102873.27;1707696;83;20523;-83
2022/03/18 08:58:09;;;;;;;;;;;;;;;7.18;35.86;102866.44;1705668;83;20213;-83
2022/03/18 09:00:35;;;;;;;;;;;;;;;7.25;35.39;102868.80;1700433;83;21187;-82
2022/03/18 09:03:00;;;;;;;;;;;;;;;7.37;34.77;102871.73;1705579;83;20156;-80
2022/03/18 09:05:26;;;;;;;;;;;;;;;7.45;34.76;102875.34;1702290;83;21284;-82
2022/03/18 09:07:51;;;;;;;;;;;;;;;7.45;34.05;102876.66;1704325;83;20535;-83
2022/03/18 09:10:17;;;;;;;;;;;;;;;7.55;33.77;102870.51;1707144;83;20145;-79
2022/03/18 09:12:44;;;;;;;;;;;;;;;7.61;33.71;102868.92;1707387;82;21162;-82
2022/03/18 09:15:10;;;;;;;;;;;;;;;7.58;33.47;102870.84;1704033;83;20148;-82
2022/03/18 09:17:35;;;;;;;;;;;;;;;7.80;33.83;102868.95;1706360;83;20289;-83
2022/03/18 09:20:01;;;;;;;;;;;;;;;7.88;34.07;102865.50;1703411;83;21146;-81
2022/03/18 09:22:26;;;;;;;;;;;;;;;7.81;33.71;102869.33;1705732;83;20157;-82
2022/03/18 09:24:52;;;;;;;;;;;;;;;7.79;33.50;102865.92;1708295;83;21140;-80
2022/03/18 09:27:18;;;;;;;;;;;;;;;7.77;33.42;102863.83;1704550;83;20162;-84
2022/03/18 09:29:43;;;;;;;;;;;;;;;7.77;33.78;102876.98;1708100;83;20108;-81
2022/03/18 09:32:09;;;;;;;;;;;;;;;7.84;33.99;102866.55;1706716;83;20211;-83
2022/03/18 09:34:35;;;;;;;;;;;;;;;7.76;34.04;102876.59;1705898;83;20915;-84
2022/03/18 09:37:00;;;;;;;;;;;;;;;7.70;33.44;102878.18;1704198;83;21192;-86
2022/03/18 09:39:29;;;;;;;;;;;;;;;7.83;33.69;102875.39;1710015;83;20401;-80
2022/03/18 09:41:54;;;;;;;;;;;;;;;7.83;33.23;102878.02;1706791;82;20124;-83
2022/03/18 09:44:20;;;;;;;;;;;;;;;7.79;33.04;102873.81;1709768;83;20450;-84
2022/03/18 09:46:47;;;;;;;;;;;;;;;7.87;33.05;102874.30;1709231;83;20304;-82
2022/03/18 09:49:14;;;;;;;;;;;;;;;8.00;32.81;102871.10;1708447;83;21155;-81
2022/03/18 09:51:40;;;;;;;;;;;;;;;8.06;32.30;102878.70;1710125;83;20260;-82
2022/03/18 09:54:07;;;;;;;;;;;;;;;8.08;32.48;102870.30;1690103;82;20279;-84
2022/03/18 09:56:41;;;;;;;;;;;;;;;8.21;32.16;102871.88;1710634;83;20495;-84
2022/03/18 09:59:06;;;;;;;;;;;;;;;8.26;32.13;102874.69;1708768;83;20183;-82
2022/03/18 10:01:32;;;;;;;;;;;;;;;8.14;31.63;102871.33;1711439;83;21089;-83
2022/03/18 10:04:06;;;;;;;;;;;;;;;8.28;31.08;102870.63;1716866;83;20959;-83
2022/03/18 10:06:34;;;;;;;;;;;;;;;8.34;31.77;102861.59;1707501;81;20133;-80
2022/03/18 10:09:00;;;;;;;;;;;;;;;8.34;31.07;102869.50;1714755;83;20180;-82
2022/03/18 10:11:33;;;;;;;;;;;;;;;8.36;30.48;102861.05;1714693;81;20435;-80
2022/03/18 10:14:07;;;;;;;;;;;;;;;8.38;30.39;102864.48;1700408;83;21136;-78
2022/03/18 10:16:37;;;;;;;;;;;;;;;8.44;30.28;102866.84;1703021;83;20530;-83
2022/03/18 10:19:05;;;;;;;;;;;;;;;8.57;30.40;102863.98;1706494;83;20184;-84
2022/03/18 10:21:31;;;;;;;;;;;;;;;8.62;30.62;102863.31;1709908;83;20183;-83
2022/03/18 10:24:07;;;;;;;;;;;;;;;8.77;30.29;102860.83;1709225;83;21520;-88
2022/03/18 10:26:34;;;;;;;;;;;;;;;8.87;30.13;102863.39;1705278;83;21093;-83
2022/03/18 10:29:03;;;;;;;;;;;;;;;8.85;30.83;102867.87;1699184;83;20188;-83
2022/03/18 10:31:28;;;;;;;;;;;;;;;8.88;30.78;102861.13;1706413;83;20153;-80
2022/03/18 10:39:35;;;;;;;;;;;;;;;9.13;30.40;102863.82;1714595;83;20939;-80
2022/03/18 10:42:04;;;;;;;;;;;;;;;9.14;30.29;102861.11;1695605;82;38840;-84
2022/03/18 10:44:46;;;;;;;;;;;;;;;9.24;30.35;102865.42;1713864;83;20528;-77
2022/03/18 10:47:38;;;;;;;;;;;;;;;9.45;30.36;102862.13;1714154;83;20480;-81
2022/03/18 10:50:15;;;;;;;;;;;;;;;9.56;30.17;102868.16;1709363;83;20342;-85
2022/03/18 10:53:00;;;;;;;;;;;;;;;9.38;29.98;102873.09;1708351;83;21204;-83
2022/03/18 10:55:34;;;;;;;;;;;;;;;9.30;29.85;102871.70;1711834;83;20143;-80
2022/03/18 10:58:04;;;;;;;;;;;;;;;9.44;29.57;102860.89;1713578;83;20121;-84
2022/03/18 11:00:31;;;;;;;;;;;;;;;9.48;29.61;102863.77;1711453;83;20203;-78
2022/03/18 11:03:01;;;;;;;;;;;;;;;9.46;29.37;102869.56;1710364;83;20185;-78
2022/03/18 11:05:30;;;;;;;;;;;;;;;9.41;29.01;102867.66;1716373;83;22184;-82
2022/03/18 11:07:56;;;;;;;;;;;;;;;9.48;29.05;102861.97;1703634;83;20260;-86
2022/03/18 11:13:07;;;;;;;;;;;;;;;9.49;28.42;102861.05;1715150;81;20163;-83
2022/03/18 11:15:35;;;;;;;;;;;;;;;9.56;28.06;102867.31;1711723;81;20479;-84
2022/03/18 11:18:03;;;;;;;;;;;;;;;9.47;28.19;102863.37;1718623;81;21341;-83
2022/03/18 11:20:28;;;;;;;;;;;;;;;9.53;27.79;102872.27;1716447;81;20175;-82
2022/03/18 11:22:57;;;;;;;;;;;;;;;9.67;27.61;102868.89;1700430;81;20187;-80
2022/03/18 11:25:22;;;;;;;;;;;;;;;9.74;27.56;102862.36;1714613;81;20510;-78
2022/03/18 11:27:48;;;;;;;;;;;;;;;9.80;27.55;102866.43;1719274;81;20152;-79
2022/03/18 11:30:19;;;;;;;;;;;;;;;9.80;27.82;102873.03;1711604;82;22390;-83
2022/03/18 11:32:47;;;;;;;;;;;;;;;9.89;27.68;102864.61;1706329;81;20870;-82
2022/03/18 11:35:13;;;;;;;;;;;;;;;9.75;27.62;102868.48;1693766;82;20172;-81
2022/03/18 11:37:38;;;;;;;;;;;;;;;9.83;27.26;102864.94;1709285;82;20133;-82
2022/03/18 11:40:27;;;;;;;;;;;;;;;9.78;27.08;102864.35;1713504;82;20203;-84
2022/03/18 11:42:50;;;;;;;;;;;;;;;9.84;27.03;102865.34;1707926;82;20183;-78
2022/03/18 11:45:33;;;;;;;;;;;;;;;10.00;27.04;102860.89;1705997;81;20201;-82
2022/03/18 11:47:58;;;;;;;;;;;;;;;9.92;26.96;102865.75;1710090;82;20212;-84
2022/03/18 11:50:42;;;;;;;;;;;;;;;10.17;26.88;102858.63;1712813;82;20121;-84
2022/03/18 11:53:10;;;;;;;;;;;;;;;10.29;26.41;102846.53;1699420;82;20972;-80
2022/03/18 11:55:35;;;;;;;;;;;;;;;10.32;26.38;102855.60;1704357;82;21081;-77
2022/03/18 11:58:01;;;;;;;;;;;;;;;10.31;26.58;102848.61;1707398;82;20645;-77
2022/03/18 12:00:42;;;;;;;;;;;;;;;10.44;26.72;102849.25;1710477;82;20160;-77
2022/03/18 12:03:06;;;;;;;;;;;;;;;10.48;26.42;102845.50;1708884;82;20139;-78
2022/03/18 12:05:32;;;;;;;;;;;;;;;10.53;25.61;102847.41;1707923;82;20180;-76
2022/03/18 12:07:59;;;;;;;;;;;;;;;10.50;25.69;102837.88;1708152;82;21185;-76
2022/03/18 12:10:35;;;;;;;;;;;;;;;10.58;26.13;102832.12;1690886;82;20858;-77
2022/03/18 12:13:03;;;;;;;;;;;;;;;10.55;25.83;102841.55;1709213;82;20271;-78
2022/03/18 12:15:30;;;;;;;;;;;;;;;10.56;25.45;102844.58;1705349;82;20175;-78
2022/03/18 12:17:57;;;;;;;;;;;;;;;10.65;25.20;102837.44;1705960;82;21019;-78
2022/03/18 12:20:34;;;;;;;;;;;;;;;10.77;25.25;102836.72;1705042;82;21085;-76
2022/03/18 12:23:03;;;;;;;;;;;;;;;10.85;25.69;102834.09;1701912;82;20131;-75
2022/03/18 12:25:29;;;;;;;;;;;;;;;10.91;25.69;102835.05;1696203;82;20221;-77
2022/03/18 12:27:54;;;;;;;;;;;;;;;10.93;25.60;102827.38;1711877;82;20522;-78
2022/03/18 12:30:25;;;;;;;;;;;;;;;10.99;24.99;102822.21;1713154;82;20176;-78
2022/03/18 12:33:02;;;;;;;;;;;;;;;10.96;25.26;102836.45;1711819;82;21231;-76
2022/03/18 12:35:38;;;;;;;;;;;;;;;10.95;24.67;102832.58;1714266;81;20125;-77
2022/03/18 12:38:14;;;;;;;;;;;;;;;10.99;24.70;102832.78;1717673;81;20351;-76
2022/03/18 12:40:41;;;;;;;;;;;;;;;11.11;24.89;102834.69;1711586;81;20180;-76
2022/03/18 12:43:07;;;;;;;;;;;;;;;11.21;25.18;102828.36;1715339;81;21137;-75
2022/03/18 12:45:36;;;;;;;;;;;;;;;11.31;25.25;102824.66;1708205;81;21254;-76
2022/03/18 12:48:04;;;;;;;;;;;;;;;11.38;25.12;102822.02;1714514;81;20194;-76
2022/03/18 12:50:32;;;;;;;;;;;;;;;11.44;25.18;102819.00;1714151;81;20204;-79
2022/03/18 12:52:58;;;;;;;;;;;;;;;11.48;24.70;102815.22;1714686;81;20201;-77
2022/03/18 12:55:24;;;;;;;;;;;;;;;11.57;24.69;102818.23;1713438;81;20190;-77
2022/03/18 12:57:50;;;;;;;;;;;;;;;11.70;24.63;102813.87;1721011;81;21104;-78
2022/03/18 13:00:17;;;;;;;;;;;;;;;11.83;23.96;102809.47;1710917;82;20776;-77